| time (UTC) | temp F | wind direction | speed MPH | gust MPH | rain 1hr in | rain 24hr in | rain mn in | humidity % | barometer mb |
| 20260507060056 | 51 | 0 | 0.0 | 1.0 | 0.00 | 0.51 | 0.00 | 88 | 1011.6 |
| 20260507054556 | 51 | 0 | 0.0 | 2.0 | 0.00 | 0.52 | 0.00 | 88 | 1011.6 |
| 20260507053058 | 51 | 0 | 0.0 | 1.0 | 0.00 | 0.52 | 0.00 | 88 | 1011.6 |
| 20260507051603 | 51 | 0 | 0.0 | 2.0 | 0.00 | 0.52 | 0.00 | 91 | 1012.0 |
| 20260507050054 | 51 | 69 | 0.0 | 5.0 | 0.00 | 0.52 | 0.00 | 93 | 1011.8 |
| 20260507044556 | 51 | 0 | 0.0 | 1.0 | 0.00 | 0.57 | 0.00 | 95 | 1011.9 |
| 20260507043059 | 52 | 0 | 0.0 | 1.0 | 0.00 | 0.57 | 0.00 | 96 | 1011.7 |
| 20260507041555 | 52 | 0 | 0.0 | 2.0 | 0.00 | 0.57 | 0.00 | 97 | 1012.0 |
| 20260507034559 | 53 | 0 | 0.0 | 2.0 | 0.00 | 0.57 | 0.57 | 98 | 1012.3 |
| 20260507033056 | 53 | 0 | 0.0 | 1.0 | 0.00 | 0.57 | 0.57 | 98 | 1011.9 |
| 20260507031559 | 53 | 0 | 0.0 | 0.0 | 0.00 | 0.57 | 0.57 | 97 | 1011.7 |
| 20260507030055 | 53 | 0 | 0.0 | 0.0 | 0.00 | 0.57 | 0.57 | 97 | 1011.4 |
| 20260507024557 | 53 | 0 | 0.0 | 0.0 | 0.00 | 0.57 | 0.57 | 97 | 1011.2 |
| 20260507023055 | 53 | 308 | 0.0 | 1.0 | 0.00 | 0.57 | 0.57 | 96 | 1011.2 |
| 20260507021554 | 54 | 0 | 0.0 | 0.0 | 0.00 | 0.57 | 0.57 | 96 | 1011.3 |
| 20260507020058 | 54 | 0 | 0.0 | 1.0 | 0.00 | 0.57 | 0.57 | 96 | 1011.2 |
| 20260507014559 | 54 | 0 | 0.0 | 3.0 | 0.00 | 0.57 | 0.57 | 95 | 1011.3 |
| 20260507013117 | 54 | 192 | 0.0 | 2.0 | 0.00 | 0.57 | 0.57 | 94 | 1011.2 |
| 20260507011553 | 54 | 321 | 1.0 | 4.0 | 0.00 | 0.57 | 0.57 | 95 | 1011.9 |
| 20260507010105 | 54 | 220 | 1.0 | 4.0 | 0.00 | 0.57 | 0.57 | 95 | 1011.3 |
| 20260507004553 | 54 | 360 | 0.0 | 3.0 | 0.00 | 0.57 | 0.57 | 95 | 1011.0 |
| 20260507003059 | 54 | 0 | 1.0 | 4.0 | 0.00 | 0.57 | 0.57 | 94 | 1011.1 |
| 20260507001558 | 54 | 0 | 0.0 | 0.0 | 0.00 | 0.57 | 0.57 | 94 | 1010.4 |
| 20260507000057 | 55 | 0 | 0.0 | 0.0 | 0.00 | 0.57 | 0.57 | 94 | 1010.3 |
| 20260506234558 | 55 | 327 | 2.0 | 4.0 | 0.00 | 0.57 | 0.57 | 93 | 1011.0 |
| 20260506233105 | 55 | 0 | 0.0 | 0.0 | 0.00 | 0.57 | 0.57 | 94 | 1009.5 |
| 20260506231605 | 56 | 0 | 0.0 | 2.0 | 0.00 | 0.57 | 0.57 | 92 | 1010.3 |
| 20260506224555 | 56 | 0 | 0.0 | 2.0 | 0.00 | 0.57 | 0.57 | 88 | 1009.9 |
| 20260506223100 | 56 | 0 | 0.0 | 1.0 | 0.00 | 0.57 | 0.57 | 89 | 1010.0 |
| 20260506221600 | 56 | 355 | 0.0 | 2.0 | 0.00 | 0.57 | 0.57 | 88 | 1010.1 |
| 20260506220059 | 56 | 0 | 0.0 | 3.0 | 0.00 | 0.57 | 0.57 | 88 | 1010.7 |
| 20260506214555 | 56 | 0 | 1.0 | 3.0 | 0.00 | 0.57 | 0.57 | 87 | 1010.3 |
| 20260506213103 | 57 | 0 | 0.0 | 2.0 | 0.00 | 0.57 | 0.57 | 86 | 1010.1 |
| 20260506211611 | 57 | 269 | 0.0 | 4.0 | 0.00 | 0.57 | 0.57 | 87 | 1009.8 |
| 20260506210059 | 57 | 0 | 0.0 | 3.0 | 0.00 | 0.57 | 0.57 | 86 | 1009.7 |
| 20260506204600 | 57 | 0 | 0.0 | 5.0 | 0.00 | 0.57 | 0.57 | 90 | 1009.9 |
| 20260506203056 | 57 | 0 | 0.0 | 2.0 | 0.00 | 0.57 | 0.57 | 88 | 1010.2 |
| 20260506201604 | 57 | 101 | 0.0 | 6.0 | 0.00 | 0.57 | 0.57 | 89 | 1010.1 |
| 20260506200055 | 56 | 278 | 1.0 | 5.0 | 0.00 | 0.57 | 0.57 | 88 | 1010.2 |
| 20260506194556 | 56 | 0 | 0.0 | 2.0 | 0.00 | 0.57 | 0.57 | 89 | 1010.3 |
| 20260506193052 | 56 | 58 | 0.0 | 3.0 | 0.00 | 0.57 | 0.57 | 90 | 1010.2 |
| 20260506191553 | 55 | 317 | 3.0 | 6.0 | 0.00 | 0.57 | 0.57 | 89 | 1010.5 |
| 20260506190058 | 56 | 0 | 0.0 | 3.0 | 0.00 | 0.57 | 0.57 | 91 | 1010.1 |
| 20260506184601 | 55 | 346 | 2.0 | 6.0 | 0.00 | 0.57 | 0.57 | 90 | 1010.2 |
| 20260506183056 | 55 | 0 | 0.0 | 0.0 | 0.00 | 0.57 | 0.57 | 92 | 1010.0 |
| 20260506181556 | 54 | 0 | 1.0 | 6.0 | 0.00 | 0.57 | 0.57 | 92 | 1010.0 |
| 20260506180059 | 54 | 143 | 0.0 | 3.0 | 0.00 | 0.57 | 0.57 | 94 | 1009.9 |
| 20260506174557 | 53 | 0 | 0.0 | 6.0 | 0.00 | 0.57 | 0.57 | 95 | 1009.9 |
| 20260506173108 | 53 | 0 | 0.0 | 3.0 | 0.00 | 0.57 | 0.57 | 96 | 1010.0 |
| 20260506171557 | 52 | 332 | 1.0 | 3.0 | 0.00 | 0.57 | 0.57 | 95 | 1009.9 |
| 20260506164613 | 51 | 0 | 0.0 | 1.0 | 0.00 | 0.57 | 0.57 | 97 | 1010.0 |
| 20260506163102 | 51 | 0 | 1.0 | 5.0 | 0.00 | 0.57 | 0.57 | 97 | 1010.0 |
| 20260506161556 | 50 | 142 | 1.0 | 4.0 | 0.00 | 0.57 | 0.57 | 98 | 1009.9 |
| 20260506160106 | 50 | 0 | 0.0 | 9.0 | 0.00 | 0.57 | 0.57 | 98 | 1009.9 |
| 20260506154554 | 50 | 275 | 2.0 | 6.0 | 0.00 | 0.57 | 0.57 | 98 | 1009.9 |
| 20260506153056 | 50 | 355 | 2.0 | 6.0 | 0.00 | 0.57 | 0.57 | 98 | 1009.5 |
| 20260506151553 | 50 | 0 | 1.0 | 4.0 | 0.00 | 0.57 | 0.57 | 98 | 1009.4 |
| 20260506150055 | 50 | 138 | 1.0 | 7.0 | 0.00 | 0.57 | 0.57 | 98 | 1009.1 |
| 20260506144552 | 50 | 0 | 1.0 | 6.0 | 0.00 | 0.57 | 0.57 | 98 | 1008.8 |
| 20260506143052 | 51 | 177 | 1.0 | 8.0 | 0.00 | 0.57 | 0.57 | 98 | 1008.3 |
| 20260506141610 | 51 | 0 | 1.0 | 4.0 | 0.00 | 0.57 | 0.57 | 98 | 1008.6 |
| 20260506140052 | 51 | 0 | 0.0 | 3.0 | 0.00 | 0.57 | 0.57 | 98 | 1008.3 |
| 20260506134552 | 51 | 0 | 2.0 | 7.0 | 0.00 | 0.57 | 0.57 | 97 | 1008.5 |
| 20260506133105 | 52 | 293 | 4.0 | 12.0 | 0.00 | 0.57 | 0.57 | 98 | 1008.0 |
| 20260506131555 | 53 | 355 | 2.0 | 6.0 | 0.00 | 0.57 | 0.57 | 97 | 1007.9 |
| 20260506130051 | 54 | 0 | 2.0 | 5.0 | 0.00 | 0.57 | 0.57 | 96 | 1007.6 |
| 20260506124551 | 58 | 151 | 1.0 | 9.0 | 0.00 | 0.57 | 0.57 | 98 | 1007.2 |
| 20260506123052 | 59 | 257 | 2.0 | 4.0 | 0.00 | 0.57 | 0.57 | 98 | 1006.6 |
| 20260506121559 | 59 | 235 | 1.0 | 10.0 | 0.00 | 0.57 | 0.57 | 98 | 1006.1 |
| 20260506120118 | 59 | 336 | 4.0 | 11.0 | 0.00 | 0.57 | 0.57 | 99 | 1006.0 |
| 20260506114553 | 59 | 252 | 2.0 | 7.0 | 0.01 | 0.57 | 0.57 | 99 | 1006.1 |
| 20260506113103 | 59 | 242 | 2.0 | 6.0 | 0.01 | 0.57 | 0.57 | 99 | 1005.7 |
| 20260506111558 | 58 | 261 | 3.0 | 12.0 | 0.01 | 0.57 | 0.57 | 99 | 1005.6 |
| 20260506110101 | 58 | 245 | 2.0 | 7.0 | 0.05 | 0.57 | 0.57 | 99 | 1005.4 |
| 20260506104555 | 58 | 259 | 2.0 | 6.0 | 0.13 | 0.56 | 0.56 | 99 | 1005.4 |
| 20260506103054 | 58 | 254 | 2.0 | 5.0 | 0.18 | 0.56 | 0.56 | 98 | 1005.0 |
| 20260506101552 | 58 | 179 | 2.0 | 8.0 | 0.24 | 0.56 | 0.56 | 98 | 1004.2 |
| 20260506100055 | 58 | 256 | 2.0 | 6.0 | 0.20 | 0.52 | 0.52 | 98 | 1005.4 |
| 20260506094555 | 57 | 0 | 1.0 | 2.0 | 0.11 | 0.43 | 0.43 | 98 | 1005.2 |
| 20260506093055 | 57 | 0 | 0.0 | 3.0 | 0.06 | 0.38 | 0.38 | 98 | 1004.9 |
| 20260506091554 | 57 | 335 | 2.0 | 5.0 | 0.01 | 0.32 | 0.32 | 97 | 1004.2 |
| 20260506090052 | 57 | 317 | 2.0 | 7.0 | 0.09 | 0.32 | 0.32 | 97 | 1004.3 |
| 20260506084552 | 57 | 227 | 2.0 | 9.0 | 0.13 | 0.32 | 0.32 | 97 | 1003.9 |
| 20260506083053 | 57 | 226 | 1.0 | 5.0 | 0.14 | 0.32 | 0.32 | 97 | 1003.9 |
| 20260506081554 | 57 | 267 | 2.0 | 6.0 | 0.15 | 0.31 | 0.31 | 97 | 1003.8 |
| 20260506073104 | 57 | 236 | 4.0 | 11.0 | 0.06 | 0.18 | 0.18 | 96 | 1003.9 |
| 20260506071610 | 56 | 231 | 1.0 | 4.0 | 0.07 | 0.16 | 0.16 | 96 | 1004.0 |
| 20260506070114 | 57 | 240 | 3.0 | 6.0 | 0.10 | 0.16 | 0.16 | 95 | 1004.2 |
| 20260506061552 | 57 | 206 | 4.0 | 13.0 | 0.05 | 0.09 | 0.09 | 93 | 1004.8 |